Bookmark and Share
Track history (hours):
 

Robert E. Mcallister

More information available from US FCC via Universal Licensing System and Coast Guard Vessel Documentation Center.

Last reported at 2014-Apr-24 08:33 UTC. Time now 2014-Apr-24 09:22 UTC.
Position N 40°40' W 074°05'.

Length 34 m; draft 4.3 m.

Type: Tug. MMSI: 367091120.

NotesDate/timePositionNaut miles runAvg speedWind from/ knotsBaromVisibWave heightAir tempDewpointWater temp
2014-Apr-24 08:33N 40°40' W 074°05'0 0.3
2014-Apr-24 07:34N 40°40' W 074°05'3 2.7
2014-Apr-24 06:33N 40°40' W 074°08'2 1.9
2014-Apr-24 05:33N 40°38' W 074°10'0 0.0
2014-Apr-24 04:33N 40°38' W 074°10'5 4.7
2014-Apr-24 03:34N 40°39' W 074°04'0 0.0
2014-Apr-24 02:33N 40°39' W 074°04'4 4.0
2014-Apr-24 01:33N 40°41' W 074°08'1 1.3
2014-Apr-24 00:33N 40°40' W 074°09'2 1.7
2014-Apr-23 23:34N 40°38' W 074°10'0 0.0
2014-Apr-23 22:33N 40°38' W 074°10'0 0.0
2014-Apr-23 21:33N 40°38' W 074°10'2 1.7
2014-Apr-23 20:32N 40°38' W 074°12'3 2.9
2014-Apr-23 19:33N 40°39' W 074°09'2 2.2
2014-Apr-23 18:33N 40°39' W 074°06'3 3.2
2014-Apr-23 17:33N 40°38' W 074°10'4 4.1
2014-Apr-23 16:34N 40°40' W 074°05'3 3.3
2014-Apr-23 15:33N 40°37' W 074°03'3 2.6
2014-Apr-23 14:34N 40°40' W 074°04'5 1.8
2014-Apr-23 12:05N 40°38' W 074°10'2 4.1
2014-Apr-23 11:32N 40°39' W 074°07'3 2.7
2014-Apr-23 10:33N 40°41' W 074°09'0 0.0
2014-Apr-23 09:33N 40°41' W 074°09'2 2.3
2014-Apr-23 08:33N 40°39' W 074°10'2 2.0
2014-Apr-23 07:33N 40°38' W 074°12'0 0.1
2014-Apr-23 06:33N 40°38' W 074°12'2 1.7
2014-Apr-23 05:28N 40°38' W 074°10'0 0.0
2014-Apr-23 04:32N 40°38' W 074°10'0 0.0
2014-Apr-23 03:33N 40°38' W 074°10'0 0.0
2014-Apr-23 02:33N 40°38' W 074°10'2 2.3
2014-Apr-23 01:33N 40°40' W 074°08'0 0.5
2014-Apr-23 00:33N 40°41' W 074°09'2 2.4
2014-Apr-22 23:33N 40°38' W 074°10'0 0.0
2014-Apr-22 22:33N 40°38' W 074°10'0 0.0
2014-Apr-22 21:33N 40°38' W 074°10'0 0.0
2014-Apr-22 20:33N 40°38' W 074°10'0 0.0
2014-Apr-22 19:33N 40°38' W 074°10'0 0.0
2014-Apr-22 18:33N 40°38' W 074°10'0 0.0
2014-Apr-22 17:33N 40°38' W 074°10'0 0.0
2014-Apr-22 16:33N 40°38' W 074°10'0 0.0
2014-Apr-22 15:33N 40°38' W 074°10'0 0.0
2014-Apr-22 14:33N 40°38' W 074°10'0 0.0
2014-Apr-22 13:33N 40°38' W 074°10'0 0.0
2014-Apr-22 12:33N 40°38' W 074°10'0 0.0
2014-Apr-22 11:33N 40°38' W 074°10'2 2.5
2014-Apr-22 10:33N 40°41' W 074°09'1 1.2
2014-Apr-22 09:33N 40°40' W 074°09'1 1.4
2014-Apr-22 08:34N 40°38' W 074°08'4 3.5
2014-Apr-22 07:33N 40°38' W 074°12'1 1.4
2014-Apr-22 06:31N 40°39' W 074°11'6 6.0
2014-Apr-22 05:33N 40°38' W 074°03'2 2.0
2014-Apr-22 04:34N 40°40' W 074°04'0 0.0
2014-Apr-22 03:34N 40°40' W 074°04'0 0.0
2014-Apr-22 02:33N 40°40' W 074°04'0 0.0
2014-Apr-22 01:33N 40°40' W 074°04'0 0.0
2014-Apr-22 00:33N 40°40' W 074°04'1 0.8
2014-Apr-21 23:33N 40°40' W 074°05'0 0.1
2014-Apr-21 22:33N 40°40' W 074°05'1 0.8
2014-Apr-21 21:33N 40°40' W 074°04'1 0.9
2014-Apr-21 20:33N 40°40' W 074°05'0 0.0
2014-Apr-21 19:33N 40°40' W 074°05'0 0.0
2014-Apr-21 18:33N 40°40' W 074°05'0 0.1
2014-Apr-21 17:33N 40°40' W 074°05'0 0.2
2014-Apr-21 16:33N 40°40' W 074°05'0 0.5
2014-Apr-21 15:33N 40°40' W 074°04'0 0.4
2014-Apr-21 14:33N 40°40' W 074°05'1 0.6
2014-Apr-21 13:33N 40°40' W 074°04'2 2.4
2014-Apr-21 12:33N 40°38' W 074°03'3 2.5
2014-Apr-21 11:33N 40°40' W 074°04'3 3.2
2014-Apr-21 10:33N 40°40' W 074°08'0 0.1
2014-Apr-21 09:33N 40°40' W 074°08'5 4.6
2014-Apr-21 08:33N 40°38' W 074°03'5 5.2
2014-Apr-21 07:33N 40°38' W 074°10'0 0.0
2014-Apr-21 06:33N 40°38' W 074°10'0 0.0
2014-Apr-21 05:33N 40°38' W 074°10'0 0.0
2014-Apr-21 04:33N 40°38' W 074°10'0 0.0
2014-Apr-21 03:33N 40°38' W 074°10'0 0.0
2014-Apr-21 02:33N 40°38' W 074°10'0 0.0
2014-Apr-21 01:33N 40°38' W 074°10'0 0.0
2014-Apr-21 00:33N 40°38' W 074°10'0 0.0
2014-Apr-20 23:33N 40°38' W 074°10'0 0.0
2014-Apr-20 22:29N 40°38' W 074°10'1 1.4
2014-Apr-20 21:32N 40°40' W 074°09'0 0.0
2014-Apr-20 20:23N 40°40' W 074°09'0 0.0
2014-Apr-20 19:31N 40°40' W 074°09'0 0.0
2014-Apr-20 18:33N 40°40' W 074°09'3 2.8
2014-Apr-20 17:32N 40°38' W 074°12'4 4.1
2014-Apr-20 16:33N 40°39' W 074°07'2 2.1
2014-Apr-20 15:33N 40°39' W 074°04'4 4.4
2014-Apr-20 14:33N 40°38' W 074°10'0 0.0
2014-Apr-20 13:33N 40°38' W 074°10'0 0.0
2014-Apr-20 12:33N 40°38' W 074°10'0 0.0
2014-Apr-20 11:33N 40°38' W 074°10'0 0.0
2014-Apr-20 10:27N 40°38' W 074°10'2 2.5
2014-Apr-20 09:33N 40°40' W 074°08'0 0.2
2014-Apr-20 08:33N 40°41' W 074°09'0 0.0
2014-Apr-20 07:33N 40°41' W 074°09'0 0.0
2014-Apr-20 06:33N 40°41' W 074°09'0 0.0
2014-Apr-20 05:33N 40°41' W 074°09'0 0.0
2014-Apr-20 04:33N 40°41' W 074°09'0 0.0
2014-Apr-20 03:33N 40°41' W 074°09'0 0.5
2014-Apr-20 02:33N 40°40' W 074°08'2 2.1
2014-Apr-20 01:33N 40°39' W 074°06'2 1.8
2014-Apr-20 00:33N 40°38' W 074°04'4 4.0
2014-Apr-19 23:33N 40°39' W 074°09'0 0.3
2014-Apr-19 22:33N 40°39' W 074°09'1 0.9
2014-Apr-19 21:33N 40°38' W 074°10'0 0.0
2014-Apr-19 20:33N 40°38' W 074°10'0 0.0
2014-Apr-19 19:33N 40°38' W 074°10'0 0.0
2014-Apr-19 18:33N 40°38' W 074°10'0 0.0
2014-Apr-19 17:34N 40°38' W 074°10'0 0.2
2014-Apr-19 16:33N 40°38' W 074°10'2 1.6
2014-Apr-19 15:31N 40°40' W 074°08'4 4.5
2014-Apr-19 14:33N 40°38' W 074°03'5 5.1
2014-Apr-19 13:34N 40°38' W 074°10'0 0.0
2014-Apr-19 12:34N 40°38' W 074°10'2 2.5
2014-Apr-19 11:34N 40°41' W 074°09'2 2.1
2014-Apr-19 10:23N 40°38' W 074°10'0 0.0
2014-Apr-19 09:33N 40°38' W 074°10'0 0.0
2014-Apr-19 08:33N 40°38' W 074°10'1 1.3
2014-Apr-19 07:33N 40°40' W 074°09'1 1.2
2014-Apr-19 06:33N 40°39' W 074°08'1 1.2
2014-Apr-19 05:33N 40°40' W 074°09'1 1.2
2014-Apr-19 04:33N 40°39' W 074°09'4 3.8
2014-Apr-19 03:33N 40°40' W 074°04'0 0.0
2014-Apr-19 02:33N 40°40' W 074°04'0 0.0
2014-Apr-19 01:33N 40°40' W 074°04'0 0.0
2014-Apr-19 00:33N 40°40' W 074°04'0 0.2
2014-Apr-18 23:33N 40°40' W 074°04'1 0.8
2014-Apr-18 22:33N 40°40' W 074°05'4 3.8
2014-Apr-18 21:33N 40°38' W 074°10'0 0.3
2014-Apr-18 20:32N 40°38' W 074°10'6 2.6
2014-Apr-18 18:10N 40°33' W 074°15'0 0.0
2014-Apr-18 16:31N 40°33' W 074°15'7 6.7
2014-Apr-18 15:30N 40°30' W 074°07'4 4.0
2014-Apr-18 14:33N 40°28' W 074°03'2 2.2
2014-Apr-18 13:33N 40°29' W 074°01'3 1.7
2014-Apr-18 12:03N 40°27' W 074°03'2 4.3
2014-Apr-18 11:32N 40°29' W 074°03'1010.1
2014-Apr-18 10:33N 40°39' W 074°07'2 2.0
2014-Apr-18 09:29N 40°38' W 074°10'0 0.0
2014-Apr-18 08:33N 40°38' W 074°10'0 0.0
2014-Apr-18 06:33N 40°38' W 074°10'0 0.0
2014-Apr-18 05:33N 40°38' W 074°10'0 0.0
2014-Apr-18 04:33N 40°38' W 074°10'1 0.7
2014-Apr-18 03:34N 40°39' W 074°09'5 5.1
2014-Apr-18 02:33N 40°37' W 074°03'12 8.7
2014-Apr-18 01:07N 40°28' W 073°51'2 2.6
2014-Apr-18 00:25N 40°29' W 073°53'8 9.1
2014-Apr-17 23:33N 40°33' W 074°02'8 8.1
2014-Apr-17 22:33N 40°38' W 074°10'0 0.1
2014-Apr-17 21:34N 40°38' W 074°10'0 0.0
2014-Apr-17 20:34N 40°38' W 074°10'0 0.0
2014-Apr-17 19:34N 40°38' W 074°10'0 0.0
2014-Apr-17 18:33N 40°38' W 074°10'0 0.0
2014-Apr-17 17:33N 40°38' W 074°10'0 0.0
2014-Apr-17 16:34N 40°38' W 074°10'0 0.0
2014-Apr-17 15:33N 40°38' W 074°10'0 0.0
2014-Apr-17 14:34N 40°38' W 074°10'0 0.0
2014-Apr-17 13:34N 40°38' W 074°10'0 0.0
2014-Apr-17 12:34N 40°38' W 074°10'5 5.0
2014-Apr-17 11:34N 40°39' W 074°03'1 0.9
2014-Apr-17 10:34N 40°39' W 074°04'3 2.9
2014-Apr-17 09:33N 40°40' W 074°08'1 0.8
2014-Apr-17 08:33N 40°41' W 074°09'2 2.5
2014-Apr-17 07:34N 40°38' W 074°10'0 0.0
2014-Apr-17 06:34N 40°38' W 074°10'0 0.0
2014-Apr-17 05:34N 40°38' W 074°10'1 0.4
2014-Apr-17 04:12N 40°39' W 074°09'1 0.9
2014-Apr-17 03:34N 40°38' W 074°10'0 0.0
2014-Apr-17 02:33N 40°38' W 074°10'0 0.0
2014-Apr-17 01:31N 40°38' W 074°10'0 0.0
2014-Apr-17 00:33N 40°38' W 074°10'0 0.0
2014-Apr-16 23:34N 40°38' W 074°10'2 2.3
2014-Apr-16 22:33N 40°40' W 074°08'2 1.9
2014-Apr-16 21:33N 40°39' W 074°08'4 3.8
2014-Apr-16 20:33N 40°38' W 074°04'4 4.4
2014-Apr-16 19:33N 40°40' W 074°08'1 0.6
2014-Apr-16 18:33N 40°41' W 074°09'2 2.4
2014-Apr-16 17:33N 40°38' W 074°10'0 0.0
2014-Apr-16 16:33N 40°38' W 074°10'0 0.0
2014-Apr-16 15:33N 40°38' W 074°10'0 0.0
2014-Apr-16 14:33N 40°38' W 074°10'0 0.0
2014-Apr-16 13:33N 40°38' W 074°10'0 0.0
2014-Apr-16 12:33N 40°38' W 074°10'2 2.1
2014-Apr-16 11:33N 40°40' W 074°08'2 1.7
2014-Apr-16 10:33N 40°38' W 074°09'4 4.3
2014-Apr-16 09:33N 40°37' W 074°03'5 5.2
2014-Apr-16 08:33N 40°38' W 074°10'0 0.0
2014-Apr-16 07:33N 40°38' W 074°10'0 0.0
2014-Apr-16 06:33N 40°38' W 074°10'0 0.0
2014-Apr-16 05:33N 40°38' W 074°10'0 0.0
2014-Apr-16 04:33N 40°38' W 074°10'0 0.0
2014-Apr-16 03:33N 40°38' W 074°10'2 2.4
2014-Apr-16 02:33N 40°41' W 074°09'2 2.3
2014-Apr-16 01:33N 40°39' W 074°08'4 3.7
2014-Apr-16 00:33N 40°38' W 074°03'3 2.8
2014-Apr-15 23:33N 40°39' W 074°06'7 5.3
2014-Apr-15 22:19N 40°34' W 074°13'4 4.7
2014-Apr-15 21:33N 40°38' W 074°12'0 0.1
2014-Apr-15 20:30N 40°38' W 074°12'2 1.9
2014-Apr-15 19:33N 40°38' W 074°10'0 0.0
2014-Apr-15 18:23N 40°38' W 074°10'0 0.0
2014-Apr-15 17:28N 40°38' W 074°10'0 0.0
2014-Apr-15 16:33N 40°38' W 074°10'3 3.0
2014-Apr-15 15:33N 40°39' W 074°06'3 2.9
2014-Apr-15 14:34N 40°41' W 074°09'0 0.1
2014-Apr-15 12:34N 40°41' W 074°09'2 2.3
2014-Apr-15 11:31N 40°38' W 074°10'0 0.0
2014-Apr-15 10:34N 40°38' W 074°10'0 0.0
2014-Apr-15 09:34N 40°38' W 074°10'0 0.0
2014-Apr-15 08:34N 40°38' W 074°10'0 0.0
2014-Apr-15 07:34N 40°38' W 074°10'0 0.0
2014-Apr-15 06:34N 40°38' W 074°10'0 0.0
2014-Apr-15 05:34N 40°38' W 074°10'6 3.0
2014-Apr-15 03:34N 40°33' W 074°14'0 0.0
2014-Apr-15 02:30N 40°33' W 074°14'9 1.6
2014-Apr-14 20:34N 40°39' W 074°05'1 1.1
2014-Apr-14 19:32N 40°39' W 074°03'1 1.3
2014-Apr-14 18:34N 40°38' W 074°04'3 3.2
2014-Apr-14 17:33N 40°39' W 074°08'2 1.7
2014-Apr-14 16:33N 40°40' W 074°08'2 2.1
2014-Apr-14 15:34N 40°38' W 074°10'0 0.0
2014-Apr-14 14:34N 40°38' W 074°10'0 0.0
2014-Apr-14 13:34N 40°38' W 074°10'1 0.7
2014-Apr-14 11:33N 40°38' W 074°12'6 5.9
2014-Apr-14 10:33N 40°39' W 074°04'1 0.9
2014-Apr-14 09:33N 40°38' W 074°03'2 1.8
2014-Apr-14 08:33N 40°40' W 074°04'  

Dump ship's entire track history

sailing weather and tide predictions

Robert E. Mcallister — WDC8669 — position and weather